createdAt,value
2017-10-12T00:01:05.674Z,86.69
2017-10-12T00:03:33.449Z,86.40
2017-10-12T00:06:01.112Z,86.82
2017-10-12T00:08:29.229Z,88.22
2017-10-12T00:10:56.923Z,87.48
2017-10-12T00:13:24.629Z,86.49
2017-10-12T00:15:52.403Z,86.93
2017-10-12T00:18:20.089Z,87.47
2017-10-12T00:20:47.850Z,86.77
2017-10-12T00:23:15.894Z,86.48
2017-10-12T00:25:43.596Z,86.38
2017-10-12T00:28:11.675Z,86.77
2017-10-12T00:30:39.381Z,86.76
2017-10-12T00:33:07.100Z,86.89
2017-10-12T00:35:34.873Z,86.65
2017-10-12T00:38:02.582Z,88.27
2017-10-12T00:40:30.329Z,87.17
2017-10-12T00:42:58.056Z,87.51
2017-10-12T00:45:25.872Z,87.51
2017-10-12T00:47:53.606Z,86.46
2017-10-12T00:50:21.313Z,86.91
2017-10-12T00:52:49.082Z,87.12
2017-10-12T00:55:16.810Z,87.66
2017-10-12T00:57:44.500Z,88.22
2017-10-12T01:00:12.340Z,88.29
2017-10-12T01:02:41.477Z,88.09
2017-10-12T01:05:09.280Z,87.37
2017-10-12T01:07:37.100Z,87.61
2017-10-12T01:10:04.862Z,87.97
2017-10-12T01:12:32.635Z,86.99
2017-10-12T01:15:00.333Z,86.75
2017-10-12T01:17:28.021Z,87.13
2017-10-12T01:19:55.852Z,87.35
2017-10-12T01:22:23.684Z,87.69
2017-10-12T01:24:51.533Z,88.74
2017-10-12T01:27:19.311Z,88.20
2017-10-12T01:29:47.452Z,88.07
2017-10-12T01:32:15.495Z,88.70
2017-10-12T01:34:43.217Z,90.01
2017-10-12T01:37:11.015Z,90.37
2017-10-12T01:39:38.806Z,90.74
2017-10-12T01:42:07.204Z,90.06
2017-10-12T01:44:34.919Z,89.53
2017-10-12T01:47:02.678Z,89.27
2017-10-12T01:49:30.420Z,90.18
2017-10-12T01:51:58.135Z,90.08
2017-10-12T01:54:25.900Z,90.52
2017-10-12T01:56:53.722Z,90.08
2017-10-12T01:59:21.421Z,90.05
2017-10-12T02:01:49.157Z,89.85
2017-10-12T02:04:16.955Z,91.23
2017-10-12T02:06:44.731Z,92.21
2017-10-12T02:09:12.446Z,91.98
2017-10-12T02:11:40.282Z,91.43
2017-10-12T02:14:08.012Z,91.49
2017-10-12T02:16:35.703Z,90.74
2017-10-12T02:19:03.510Z,90.45
2017-10-12T02:21:31.250Z,90.56
2017-10-12T02:23:59.080Z,91.22
2017-10-12T02:26:26.916Z,90.71
2017-10-12T02:28:54.756Z,91.06
2017-10-12T02:31:22.482Z,90.32
2017-10-12T02:33:50.359Z,90.39
2017-10-12T02:36:19.204Z,90.26
2017-10-12T02:38:46.955Z,89.89
2017-10-12T02:41:14.718Z,90.24
2017-10-12T02:43:42.506Z,90.44
2017-10-12T02:46:10.359Z,90.66
2017-10-12T02:48:38.055Z,90.70
2017-10-12T02:51:05.801Z,90.32
2017-10-12T02:53:33.579Z,90.37
2017-10-12T02:56:01.274Z,90.86
2017-10-12T02:58:28.975Z,90.87
2017-10-12T03:00:57.136Z,90.10
2017-10-12T03:03:24.868Z,90.46
2017-10-12T03:05:52.630Z,90.41
2017-10-12T03:08:20.323Z,90.78
2017-10-12T03:10:48.063Z,90.31
2017-10-12T03:13:15.752Z,91.09
2017-10-12T03:15:43.476Z,90.44
2017-10-12T03:18:11.205Z,90.54
2017-10-12T03:20:38.983Z,90.58
2017-10-12T03:23:06.758Z,90.72
2017-10-12T03:25:34.502Z,91.26
2017-10-12T03:28:02.221Z,90.96
2017-10-12T03:30:29.933Z,91.13
2017-10-12T03:32:57.621Z,92.16
2017-10-12T03:35:25.429Z,92.04
2017-10-12T03:37:53.172Z,91.48
2017-10-12T03:40:21.156Z,92.29
2017-10-12T03:42:48.933Z,92.58
2017-10-12T03:45:16.650Z,92.11
2017-10-12T03:47:44.391Z,92.08
2017-10-12T03:50:12.158Z,91.40
2017-10-12T03:52:39.849Z,91.45
2017-10-12T03:55:07.594Z,92.11
2017-10-12T03:57:35.932Z,92.04
2017-10-12T04:00:03.682Z,91.64
2017-10-12T04:02:31.418Z,92.45
2017-10-12T04:04:59.159Z,92.37
2017-10-12T04:07:26.844Z,91.93
2017-10-12T04:09:54.638Z,92.36
2017-10-12T04:12:22.325Z,92.96
2017-10-12T04:14:50.491Z,92.86
2017-10-12T04:17:18.827Z,93.04
2017-10-12T04:19:46.582Z,93.38
2017-10-12T04:22:14.258Z,93.70
2017-10-12T04:24:42.017Z,93.38
2017-10-12T04:27:09.767Z,93.21
2017-10-12T04:29:37.462Z,92.87
2017-10-12T04:32:05.170Z,92.72
2017-10-12T04:34:32.919Z,92.75
2017-10-12T04:37:00.634Z,92.61
2017-10-12T04:39:28.442Z,93.21
2017-10-12T04:41:56.132Z,93.07
2017-10-12T04:44:23.881Z,93.63
2017-10-12T04:46:51.647Z,92.71
2017-10-12T04:49:19.347Z,92.43
2017-10-12T04:51:47.067Z,92.44
2017-10-12T04:54:14.801Z,92.75
2017-10-12T04:56:42.564Z,92.66
2017-10-12T04:59:10.337Z,92.26
2017-10-12T05:01:38.096Z,92.18
2017-10-12T05:04:05.802Z,92.39
2017-10-12T05:06:33.481Z,92.24
2017-10-12T05:09:01.350Z,93.19
2017-10-12T05:11:29.054Z,93.15
2017-10-12T05:13:56.780Z,92.63
2017-10-12T05:16:24.524Z,91.96
2017-10-12T05:18:52.232Z,91.96
2017-10-12T05:21:20.037Z,91.85
2017-10-12T05:23:47.778Z,92.02
2017-10-12T05:26:15.551Z,91.93
2017-10-12T05:28:43.236Z,92.83
2017-10-12T05:31:10.928Z,93.18
2017-10-12T05:33:38.650Z,92.32
2017-10-12T05:36:06.382Z,92.07
2017-10-12T05:38:34.191Z,92.80
2017-10-12T05:41:02.017Z,92.90
2017-10-12T05:43:29.783Z,92.35
2017-10-12T05:45:57.548Z,92.52
2017-10-12T05:48:25.334Z,91.57
2017-10-12T05:50:53.022Z,91.85
2017-10-12T05:53:20.726Z,92.09
2017-10-12T05:55:48.466Z,92.87
2017-10-12T05:58:16.293Z,93.29
2017-10-12T06:00:43.960Z,93.14
2017-10-12T06:03:11.658Z,93.19
2017-10-12T06:05:39.530Z,93.48
2017-10-12T06:08:07.256Z,93.38
2017-10-12T06:10:35.049Z,92.86
2017-10-12T06:13:02.920Z,92.65
2017-10-12T06:15:30.695Z,92.24
2017-10-12T06:17:58.407Z,91.81
2017-10-12T06:20:26.267Z,92.28
2017-10-12T06:22:54.168Z,92.62
2017-10-12T06:25:21.909Z,92.65
2017-10-12T06:27:49.660Z,92.84
2017-10-12T06:30:19.515Z,92.51
2017-10-12T06:32:48.252Z,91.98
2017-10-12T06:35:15.998Z,91.50
2017-10-12T06:37:43.786Z,91.10
2017-10-12T06:40:11.468Z,91.70
2017-10-12T06:42:39.304Z,91.43
2017-10-12T06:45:07.138Z,91.21
2017-10-12T06:47:34.838Z,91.68
2017-10-12T06:50:02.627Z,91.10
2017-10-12T06:52:30.430Z,90.51
2017-10-12T06:54:58.217Z,89.76
2017-10-12T06:57:26.138Z,90.48
2017-10-12T06:59:53.912Z,91.07
2017-10-12T07:02:21.637Z,90.78
2017-10-12T07:04:49.404Z,90.47
2017-10-12T07:07:17.078Z,91.14
2017-10-12T07:09:44.920Z,89.74
2017-10-12T07:12:12.680Z,90.56
2017-10-12T07:14:40.439Z,91.08
2017-10-12T07:17:08.924Z,90.77
2017-10-12T07:19:36.690Z,89.93
2017-10-12T07:22:04.450Z,90.71
2017-10-12T07:24:32.144Z,90.14
2017-10-12T07:27:00.793Z,89.24
2017-10-12T07:29:28.515Z,89.60
2017-10-12T07:31:56.485Z,90.16
2017-10-12T07:34:24.195Z,90.29
2017-10-12T07:36:51.884Z,89.56
2017-10-12T07:39:19.653Z,87.67
2017-10-12T07:41:47.382Z,84.74
2017-10-12T07:44:15.249Z,83.59
2017-10-12T07:46:43.014Z,82.37
2017-10-12T07:49:10.787Z,83.75
2017-10-12T07:51:39.178Z,84.71
2017-10-12T07:54:06.910Z,86.30
2017-10-12T07:56:34.690Z,85.96
2017-10-12T07:59:02.419Z,84.87
2017-10-12T08:01:30.229Z,86.17
2017-10-12T08:03:57.969Z,87.06
2017-10-12T08:06:25.821Z,85.65
2017-10-12T08:08:53.563Z,85.26
2017-10-12T08:11:21.309Z,84.90
2017-10-12T08:13:49.168Z,83.26
2017-10-12T08:16:16.995Z,79.73
2017-10-12T08:18:44.697Z,79.84
2017-10-12T08:21:12.413Z,76.55
2017-10-12T08:23:40.186Z,74.06
2017-10-12T08:26:07.951Z,72.53
2017-10-12T08:28:35.679Z,72.24
2017-10-12T08:31:03.429Z,70.17
2017-10-12T08:33:31.119Z,67.47
2017-10-12T08:35:58.806Z,70.12
2017-10-12T08:38:26.572Z,69.38
2017-10-12T08:40:54.293Z,70.32
2017-10-12T08:43:22.000Z,70.09
2017-10-12T08:45:49.903Z,69.95
2017-10-12T08:48:17.653Z,68.77
2017-10-12T08:50:45.382Z,68.10
2017-10-12T08:53:13.124Z,69.33
2017-10-12T08:55:40.897Z,69.37
2017-10-12T08:58:08.623Z,68.31
2017-10-12T09:00:36.430Z,69.73
2017-10-12T09:03:04.191Z,70.19
2017-10-12T09:05:31.880Z,68.46
2017-10-12T09:07:59.616Z,65.20
2017-10-12T09:10:27.409Z,67.48
2017-10-12T09:12:55.094Z,65.81
2017-10-12T09:15:22.876Z,63.24
2017-10-12T09:17:50.724Z,64.59
2017-10-12T09:20:18.468Z,63.84
2017-10-12T09:22:46.539Z,63.75
2017-10-12T09:25:14.385Z,61.92
2017-10-12T09:27:42.127Z,60.47
2017-10-12T09:30:09.832Z,58.42
2017-10-12T09:32:37.638Z,60.56
2017-10-12T09:35:05.503Z,59.48
2017-10-12T09:37:33.283Z,62.52
2017-10-12T09:40:01.003Z,61.84
2017-10-12T09:42:28.894Z,62.41
2017-10-12T09:44:56.616Z,61.10
2017-10-12T09:47:24.359Z,59.40
2017-10-12T09:49:52.163Z,58.17
2017-10-12T09:52:19.940Z,56.46
2017-10-12T09:54:47.697Z,56.71
2017-10-12T09:57:15.550Z,61.18
2017-10-12T09:59:43.405Z,57.61
2017-10-12T10:02:11.144Z,57.81
2017-10-12T10:04:38.820Z,57.82
2017-10-12T10:07:06.601Z,58.22
2017-10-12T10:09:34.361Z,58.21
2017-10-12T10:12:02.084Z,58.43
2017-10-12T10:14:29.821Z,56.21
2017-10-12T10:16:57.498Z,57.29
2017-10-12T10:19:25.198Z,56.56
2017-10-12T10:21:52.959Z,57.58
2017-10-12T10:24:20.662Z,56.08
2017-10-12T10:26:48.538Z,56.04
2017-10-12T10:29:21.926Z,58.93
2017-10-12T10:31:49.872Z,58.34
2017-10-12T10:34:17.576Z,56.68
2017-10-12T10:36:45.285Z,56.30
2017-10-12T10:39:13.033Z,55.43
2017-10-12T10:41:40.795Z,58.02
2017-10-12T10:44:08.532Z,56.80
2017-10-12T10:46:36.455Z,56.91
2017-10-12T10:49:04.200Z,58.58
2017-10-12T10:51:32.022Z,57.50
2017-10-12T10:53:59.726Z,56.86
2017-10-12T10:56:27.555Z,55.32
2017-10-12T10:58:55.428Z,55.65
2017-10-12T11:01:23.244Z,55.28
2017-10-12T11:03:50.942Z,55.58
2017-10-12T11:06:18.677Z,54.36
2017-10-12T11:08:46.374Z,56.95
2017-10-12T11:11:14.144Z,56.47
2017-10-12T11:13:41.899Z,55.88
2017-10-12T11:16:09.641Z,56.22
2017-10-12T11:18:37.363Z,56.25
2017-10-12T11:21:05.310Z,56.02
2017-10-12T11:23:33.087Z,55.66
2017-10-12T11:26:01.029Z,53.94
2017-10-12T11:28:29.563Z,52.26
2017-10-12T11:30:58.217Z,53.79
2017-10-12T11:33:27.905Z,51.50
2017-10-12T11:35:55.642Z,50.07
2017-10-12T11:38:24.249Z,52.65
2017-10-12T11:40:52.035Z,50.05
2017-10-12T11:43:19.785Z,48.74
2017-10-12T11:45:47.561Z,50.23
2017-10-12T11:48:15.376Z,48.25
2017-10-12T11:50:43.186Z,45.30
2017-10-12T11:53:11.696Z,48.59
2017-10-12T11:55:39.535Z,43.25
2017-10-12T11:58:07.436Z,43.43
2017-10-12T12:00:36.323Z,40.01
2017-10-12T12:03:05.261Z,41.64
2017-10-12T12:05:32.988Z,43.14
2017-10-12T12:08:00.817Z,42.60
2017-10-12T12:10:28.688Z,40.14
2017-10-12T12:12:59.286Z,42.39
2017-10-12T12:15:27.035Z,38.41
2017-10-12T12:17:54.840Z,38.62
2017-10-12T12:20:22.603Z,38.38
2017-10-12T12:22:51.346Z,37.19
2017-10-12T12:25:19.195Z,37.92
2017-10-12T12:27:46.971Z,38.62
2017-10-12T12:30:14.909Z,37.47
2017-10-12T12:32:42.663Z,37.57
2017-10-12T12:35:10.441Z,39.79
2017-10-12T12:37:38.224Z,38.41
2017-10-12T12:40:05.978Z,38.48
2017-10-12T12:42:33.755Z,38.23
2017-10-12T12:45:01.490Z,39.79
2017-10-12T12:47:29.421Z,37.47
2017-10-12T12:49:57.121Z,36.25
2017-10-12T12:52:24.981Z,36.98
2017-10-12T12:54:52.725Z,37.91
2017-10-12T12:57:20.474Z,38.61
2017-10-12T12:59:48.243Z,38.35
2017-10-12T13:02:16.266Z,38.75
2017-10-12T13:04:44.041Z,39.15
2017-10-12T13:07:12.595Z,39.04
2017-10-12T13:09:40.368Z,38.78
2017-10-12T13:12:08.093Z,40.81
2017-10-12T13:14:35.851Z,38.84
2017-10-12T13:17:03.595Z,38.49
2017-10-12T13:19:31.335Z,38.86
2017-10-12T13:21:59.144Z,39.24
2017-10-12T13:24:26.849Z,39.43
2017-10-12T13:26:54.590Z,39.91
2017-10-12T13:29:22.346Z,39.89
2017-10-12T13:31:50.094Z,39.84
2017-10-12T13:34:17.886Z,39.82
2017-10-12T13:36:45.608Z,40.12
2017-10-12T13:39:14.267Z,41.17
2017-10-12T13:41:42.078Z,40.73
2017-10-12T13:44:10.105Z,41.54
2017-10-12T13:46:38.178Z,42.01
2017-10-12T13:49:05.987Z,42.69
2017-10-12T13:51:33.784Z,43.21
2017-10-12T13:54:01.593Z,44.29
2017-10-12T13:56:29.345Z,44.16
2017-10-12T13:58:57.133Z,45.06
2017-10-12T14:01:24.990Z,45.34
2017-10-12T14:03:52.708Z,43.38
2017-10-12T14:06:20.488Z,43.58
2017-10-12T14:08:48.281Z,44.59
2017-10-12T14:11:16.832Z,43.53
2017-10-12T14:13:45.033Z,45.65
2017-10-12T14:16:13.674Z,46.27
2017-10-12T14:18:41.504Z,46.28
2017-10-12T14:21:09.262Z,45.89
2017-10-12T14:23:37.194Z,46.30
2017-10-12T14:26:04.967Z,46.43
2017-10-12T14:28:33.013Z,46.41
2017-10-12T14:31:00.875Z,46.67
2017-10-12T14:33:28.708Z,46.54
2017-10-12T14:35:56.941Z,47.73
2017-10-12T14:38:24.695Z,46.89
2017-10-12T14:40:52.409Z,47.10
2017-10-12T14:43:20.279Z,46.97
2017-10-12T14:45:48.461Z,47.32
2017-10-12T14:48:16.219Z,47.86
2017-10-12T14:50:43.961Z,48.46
2017-10-12T14:53:11.697Z,48.29
2017-10-12T14:55:39.414Z,49.54
2017-10-12T14:58:07.169Z,49.11
2017-10-12T15:00:34.883Z,48.89
2017-10-12T15:03:02.814Z,49.80
2017-10-12T15:05:30.926Z,49.76
2017-10-12T15:07:58.740Z,49.93
2017-10-12T15:10:26.609Z,50.57
2017-10-12T15:12:55.837Z,51.58
2017-10-12T15:15:23.600Z,51.05
2017-10-12T15:17:52.027Z,51.05
2017-10-12T15:20:19.834Z,50.68
2017-10-12T15:22:47.763Z,51.20
2017-10-12T15:25:15.539Z,55.76
2017-10-12T15:27:43.303Z,57.57
2017-10-12T15:30:11.167Z,57.72
2017-10-12T15:32:38.919Z,58.13
2017-10-12T15:35:06.772Z,59.08
2017-10-12T15:37:34.499Z,60.78
2017-10-12T15:40:02.268Z,59.83
2017-10-12T15:42:30.009Z,60.82
2017-10-12T15:44:57.777Z,61.14
2017-10-12T15:47:25.667Z,62.02
2017-10-12T15:49:53.466Z,63.40
2017-10-12T15:52:21.230Z,62.67
2017-10-12T15:54:50.014Z,62.52
2017-10-12T15:57:17.737Z,62.12
2017-10-12T15:59:45.498Z,60.57
2017-10-12T16:02:13.281Z,60.36
2017-10-12T16:04:41.010Z,59.15
2017-10-12T16:07:08.785Z,59.62
2017-10-12T16:09:36.600Z,61.80
2017-10-12T16:12:04.341Z,61.81
2017-10-12T16:14:32.174Z,62.11
2017-10-12T16:16:59.899Z,63.24
2017-10-12T16:19:27.595Z,63.74
2017-10-12T16:21:55.436Z,63.68
2017-10-12T16:24:23.420Z,65.63
2017-10-12T16:26:51.215Z,65.35
2017-10-12T16:29:19.123Z,66.49
2017-10-12T16:31:46.839Z,68.20
2017-10-12T16:34:14.616Z,67.75
2017-10-12T16:36:42.374Z,67.71
2017-10-12T16:39:10.109Z,69.01
2017-10-12T16:41:45.496Z,68.95
2017-10-12T16:44:13.367Z,68.08
2017-10-12T16:46:41.151Z,68.65
2017-10-12T16:49:09.014Z,66.86
2017-10-12T16:51:36.818Z,69.08
2017-10-12T16:54:05.073Z,68.66
2017-10-12T16:56:32.849Z,68.81
2017-10-12T16:59:00.560Z,68.61
2017-10-12T17:01:28.365Z,63.25
2017-10-12T17:03:56.113Z,62.63
2017-10-12T17:06:23.883Z,61.25
2017-10-12T17:08:51.807Z,61.41
2017-10-12T17:11:19.692Z,63.50
2017-10-12T17:13:48.593Z,62.53
2017-10-12T17:16:16.331Z,61.62
2017-10-12T17:18:44.084Z,62.52
2017-10-12T17:21:11.877Z,64.18
2017-10-12T17:26:07.399Z,62.33
2017-10-12T17:28:35.171Z,61.80
2017-10-12T17:31:03.048Z,62.42
2017-10-12T17:33:30.861Z,62.30
2017-10-12T17:35:58.659Z,65.33
2017-10-12T17:38:26.492Z,67.46
2017-10-12T17:40:54.730Z,64.54
2017-10-12T17:43:22.607Z,63.27
2017-10-12T17:45:50.304Z,61.82
2017-10-12T17:48:18.006Z,61.86
2017-10-12T17:50:45.754Z,61.69
2017-10-12T17:53:13.573Z,62.24
2017-10-12T17:55:41.279Z,62.36
2017-10-12T17:58:09.043Z,62.03
2017-10-12T18:00:37.468Z,62.49
2017-10-12T18:03:05.238Z,62.64
2017-10-12T18:05:33.411Z,66.01
2017-10-12T18:08:01.200Z,67.56
2017-10-12T18:10:29.059Z,68.92
2017-10-12T18:12:56.759Z,69.21
2017-10-12T18:15:24.581Z,69.58
2017-10-12T18:17:52.314Z,70.87
2017-10-12T18:20:20.082Z,70.96
2017-10-12T18:22:47.865Z,71.15
2017-10-12T18:25:15.635Z,71.66
2017-10-12T18:27:43.514Z,72.74
2017-10-12T18:30:11.357Z,72.67
2017-10-12T18:32:39.115Z,73.07
2017-10-12T18:35:06.924Z,73.33
2017-10-12T18:37:35.151Z,73.18
2017-10-12T18:40:02.995Z,74.20
2017-10-12T18:42:30.933Z,73.90
2017-10-12T18:44:58.947Z,73.68
2017-10-12T18:47:26.709Z,74.52
2017-10-12T18:52:22.359Z,74.68
2017-10-12T18:54:50.153Z,74.97
2017-10-12T18:57:17.905Z,74.25
2017-10-12T18:59:45.688Z,74.67
2017-10-12T19:02:13.451Z,75.40
2017-10-12T19:04:41.400Z,75.38
2017-10-12T19:07:09.188Z,75.38
2017-10-12T19:09:36.961Z,75.63
2017-10-12T19:12:04.813Z,75.71
2017-10-12T19:14:32.613Z,76.51
2017-10-12T19:17:00.449Z,76.95
2017-10-12T19:19:28.195Z,76.86
2017-10-12T19:21:56.247Z,77.19
2017-10-12T19:24:24.084Z,76.26
2017-10-12T19:26:51.972Z,76.09
2017-10-12T19:29:19.727Z,76.47
2017-10-12T19:31:47.552Z,76.24
2017-10-12T19:34:15.301Z,76.63
2017-10-12T19:36:44.279Z,77.15
2017-10-12T19:39:11.967Z,78.18
2017-10-12T19:44:13.640Z,77.57
2017-10-12T19:46:41.656Z,77.49
2017-10-12T19:49:09.423Z,76.73
2017-10-12T19:51:37.171Z,76.26
2017-10-12T19:54:04.943Z,77.01
2017-10-12T19:56:32.690Z,77.06
2017-10-12T20:01:29.330Z,77.62
2017-10-12T20:03:58.553Z,77.69
2017-10-12T20:06:27.311Z,77.35
2017-10-12T20:08:55.168Z,76.70
2017-10-12T20:11:22.878Z,76.81
2017-10-12T20:14:20.112Z,77.12
2017-10-12T20:16:18.625Z,78.13
2017-10-12T20:21:14.086Z,78.27
2017-10-12T20:23:41.971Z,78.50
2017-10-12T20:26:09.804Z,77.95
2017-10-12T20:28:37.686Z,78.71
2017-10-12T20:31:05.464Z,78.99
2017-10-12T20:33:33.168Z,78.75
2017-10-12T20:36:00.981Z,78.60
2017-10-12T20:38:28.793Z,78.43
2017-10-12T20:40:56.476Z,77.98
2017-10-12T20:43:24.229Z,78.21
2017-10-12T20:45:51.982Z,78.76
2017-10-12T20:48:19.736Z,79.04
2017-10-12T20:50:47.511Z,78.58
2017-10-12T20:53:15.234Z,79.20
2017-10-12T20:55:43.014Z,79.58
2017-10-12T20:58:10.864Z,79.47
2017-10-12T21:00:38.935Z,79.82
2017-10-12T21:03:06.711Z,79.20
2017-10-12T21:08:02.407Z,79.10
2017-10-12T21:10:30.160Z,79.14
2017-10-12T21:12:57.928Z,78.75
2017-10-12T21:15:25.712Z,79.33
2017-10-12T21:17:53.415Z,79.61
2017-10-12T21:20:21.224Z,79.22
2017-10-12T21:22:49.017Z,79.44
2017-10-12T21:25:16.741Z,80.48
2017-10-12T21:27:44.504Z,80.03
2017-10-12T21:30:12.294Z,80.22
2017-10-12T21:35:14.362Z,80.44
2017-10-12T21:37:43.322Z,80.12
2017-10-12T21:40:11.349Z,80.29
2017-10-12T21:42:39.144Z,80.62
2017-10-12T21:45:06.882Z,80.61
2017-10-12T21:47:34.591Z,81.55
2017-10-12T21:50:02.407Z,80.57
2017-10-12T21:52:30.172Z,80.94
2017-10-12T21:54:57.924Z,81.44
2017-10-12T21:57:25.688Z,81.20
2017-10-12T21:59:53.443Z,80.54
2017-10-12T22:02:21.392Z,81.63
2017-10-12T22:04:49.124Z,81.97
2017-10-12T22:07:16.906Z,81.85
2017-10-12T22:09:44.721Z,81.82
2017-10-12T22:12:13.516Z,81.34
2017-10-12T22:14:41.263Z,81.81
2017-10-12T22:17:08.966Z,81.57
2017-10-12T22:19:36.689Z,81.52
2017-10-12T22:22:04.609Z,81.59
2017-10-12T22:24:32.354Z,82.33
2017-10-12T22:27:00.052Z,81.67
2017-10-12T22:29:27.813Z,81.80
2017-10-12T22:31:55.567Z,82.03
2017-10-12T22:34:23.324Z,82.15
2017-10-12T22:36:51.105Z,81.79
2017-10-12T22:39:18.813Z,81.83
2017-10-12T22:41:46.611Z,82.78
2017-10-12T22:44:14.361Z,83.04
2017-10-12T22:46:42.095Z,82.23
2017-10-12T22:49:09.823Z,82.64
2017-10-12T22:51:37.587Z,82.58
2017-10-12T22:54:05.354Z,83.00
2017-10-12T22:56:33.067Z,82.68
2017-10-12T22:59:00.812Z,82.51
2017-10-12T23:01:28.552Z,82.42
2017-10-12T23:03:56.309Z,82.43
2017-10-12T23:06:24.069Z,82.19
2017-10-12T23:08:51.834Z,81.98
2017-10-12T23:11:19.552Z,82.15
2017-10-12T23:13:47.338Z,82.28
2017-10-12T23:16:15.206Z,82.37
2017-10-12T23:18:43.437Z,82.84
2017-10-12T23:21:11.176Z,83.75
2017-10-12T23:23:39.242Z,83.01
2017-10-12T23:26:07.044Z,83.26
2017-10-12T23:28:34.853Z,82.87
2017-10-12T23:31:02.590Z,82.23
2017-10-12T23:33:30.862Z,82.17
2017-10-12T23:35:58.621Z,81.61
2017-10-12T23:38:26.328Z,80.90
2017-10-12T23:40:54.125Z,79.74
2017-10-12T23:43:22.469Z,79.94
2017-10-12T23:45:50.154Z,80.98
2017-10-12T23:48:18.043Z,81.44
2017-10-12T23:50:45.740Z,82.17
2017-10-12T23:53:13.462Z,81.88
2017-10-12T23:55:41.158Z,81.72
2017-10-12T23:58:09.854Z,81.47
